Time;durP1;ratioP1;P1;durP2;ratioP2;P2;SDS_P1;SDS_P2;PMS_P1;PMS_P2;Temp;Humidity;BMP_temperature;BMP_pressure;BME280_temperature;BME280_humidity;BME280_pressure;Samples;Min_cycle;Max_cycle;Signal;HPM_P1;HPM_P2
2022/01/10 00:00:36;;;;;;;;;62.00;51.75;;;;;;;;5051468;28;45720;-86
2022/01/10 00:03:02;;;;;;;;;62.75;51.75;;;;;;;;5050132;28;45669;-84
2022/01/10 00:05:27;;;;;;;;;69.75;56.00;;;;;;;;5051126;28;45451;-85
2022/01/10 00:07:53;;;;;;;;;64.50;52.00;;;;;;;;5051050;28;46215;-84
2022/01/10 00:10:18;;;;;;;;;67.75;54.50;;;;;;;;5052543;28;45303;-82
2022/01/10 00:12:44;;;;;;;;;62.00;52.00;;;;;;;;5052773;28;45622;-83
2022/01/10 00:15:11;;;;;;;;;65.25;53.75;;;;;;;;5049981;28;45451;-79
2022/01/10 00:17:38;;;;;;;;;68.50;54.00;;;;;;;;5048449;28;48478;-79
2022/01/10 00:20:10;;;;;;;;;69.50;55.75;;;;;;;;5050403;28;45415;-85
2022/01/10 00:22:36;;;;;;;;;64.25;53.25;;;;;;;;5049120;28;45589;-85
2022/01/10 00:25:02;;;;;;;;;61.50;51.25;;;;;;;;5052069;28;45443;-79
2022/01/10 00:27:27;;;;;;;;;60.50;50.75;;;;;;;;5050764;28;46331;-85
2022/01/10 00:29:55;;;;;;;;;58.00;48.33;;;;;;;;5049280;28;45680;-84
2022/01/10 00:32:23;;;;;;;;;60.00;49.25;;;;;;;;5051341;28;45673;-86
2022/01/10 00:34:48;;;;;;;;;61.50;51.25;;;;;;;;5051114;28;45327;-79
2022/01/10 00:37:13;;;;;;;;;70.33;57.33;;;;;;;;5050939;28;45465;-80
2022/01/10 00:39:38;;;;;;;;;68.67;55.33;;;;;;;;5050998;28;45602;-82
2022/01/10 00:42:03;;;;;;;;;73.33;59.00;;;;;;;;5050754;28;45463;-80
2022/01/10 00:44:31;;;;;;;;;64.33;54.00;;;;;;;;5050099;28;45815;-83
2022/01/10 00:46:56;;;;;;;;;61.00;51.75;;;;;;;;5048224;28;46521;-87
2022/01/10 00:49:22;;;;;;;;;61.00;51.67;;;;;;;;5051979;28;45419;-80
2022/01/10 00:51:47;;;;;;;;;61.33;51.33;;;;;;;;5050177;28;45527;-81
2022/01/10 00:54:12;;;;;;;;;59.33;48.00;;;;;;;;5049536;28;45591;-79
2022/01/10 00:56:37;;;;;;;;;61.67;51.33;;;;;;;;5050031;28;46714;-85
2022/01/10 00:59:02;;;;;;;;;65.67;54.00;;;;;;;;5051986;28;45764;-78
2022/01/10 01:01:28;;;;;;;;;62.00;51.00;;;;;;;;5050491;28;45595;-81
2022/01/10 01:03:53;;;;;;;;;58.33;50.00;;;;;;;;5050210;28;45435;-83
2022/01/10 01:06:18;;;;;;;;;62.25;50.50;;;;;;;;5047957;28;48312;-79
2022/01/10 01:08:44;;;;;;;;;65.00;53.67;;;;;;;;5051710;28;45495;-81
2022/01/10 01:13:55;;;;;;;;;61.00;51.50;;;;;;;;5050067;28;45519;-82
2022/01/10 01:24:11;;;;;;;;;60.75;50.50;;;;;;;;5049786;28;45473;-83
2022/01/10 01:26:38;;;;;;;;;61.00;49.33;;;;;;;;5049893;28;45428;-81
2022/01/10 01:29:04;;;;;;;;;62.25;51.50;;;;;;;;5048541;28;45915;-86
2022/01/10 01:31:30;;;;;;;;;61.75;49.00;;;;;;;;5050069;28;45460;-84
2022/01/10 01:33:55;;;;;;;;;68.00;54.00;;;;;;;;5048486;28;45431;-79
2022/01/10 01:36:23;;;;;;;;;59.00;49.00;;;;;;;;5047601;28;47185;-85
2022/01/10 01:38:49;;;;;;;;;66.25;54.00;;;;;;;;5048207;28;45712;-80
2022/01/10 01:43:49;;;;;;;;;60.75;51.00;;;;;;;;5049513;28;45513;-81
2022/01/10 01:46:14;;;;;;;;;66.00;53.00;;;;;;;;5049753;28;46620;-79
2022/01/10 01:48:40;;;;;;;;;63.00;52.50;;;;;;;;5050302;28;45468;-85
2022/01/10 01:51:05;;;;;;;;;58.33;49.33;;;;;;;;5047771;28;45500;-79
2022/01/10 01:53:30;;;;;;;;;58.75;48.50;;;;;;;;5050302;28;45700;-84
2022/01/10 01:55:56;;;;;;;;;56.75;47.00;;;;;;;;5049360;28;47040;-79
2022/01/10 01:58:21;;;;;;;;;63.75;52.75;;;;;;;;5049387;28;45718;-80
2022/01/10 02:00:46;;;;;;;;;59.00;49.00;;;;;;;;5049990;28;45362;-85
2022/01/10 02:03:12;;;;;;;;;60.00;48.33;;;;;;;;5049888;28;45357;-85
2022/01/10 02:05:37;;;;;;;;;61.00;49.00;;;;;;;;5048476;28;46128;-84
2022/01/10 02:08:02;;;;;;;;;64.67;51.33;;;;;;;;5047785;28;46264;-85
2022/01/10 02:10:27;;;;;;;;;60.33;49.67;;;;;;;;5049043;28;45481;-80
2022/01/10 02:12:53;;;;;;;;;59.67;49.33;;;;;;;;5047601;28;45519;-79
2022/01/10 02:15:28;;;;;;;;;63.00;49.67;;;;;;;;5049309;28;46430;-85
2022/01/10 02:17:58;;;;;;;;;62.25;49.00;;;;;;;;5048425;28;45433;-82
2022/01/10 02:20:24;;;;;;;;;53.75;46.75;;;;;;;;5048327;28;45693;-82
2022/01/10 02:22:49;;;;;;;;;54.67;44.33;;;;;;;;5047648;28;45613;-85
2022/01/10 02:25:14;;;;;;;;;55.33;45.67;;;;;;;;5047651;28;47350;-80
2022/01/10 02:27:39;;;;;;;;;50.00;42.67;;;;;;;;5047383;28;45501;-86
2022/01/10 02:30:05;;;;;;;;;57.33;47.00;;;;;;;;5048609;28;45416;-85
2022/01/10 02:32:34;;;;;;;;;56.75;46.75;;;;;;;;5047507;28;45690;-81
2022/01/10 02:34:59;;;;;;;;;57.50;47.50;;;;;;;;5047029;28;47206;-86
2022/01/10 02:37:29;;;;;;;;;54.67;46.67;;;;;;;;5048896;28;45441;-79
2022/01/10 02:39:54;;;;;;;;;61.00;51.00;;;;;;;;5050333;28;45514;-86
2022/01/10 02:42:19;;;;;;;;;55.67;47.33;;;;;;;;5053038;28;45409;-83
2022/01/10 02:44:44;;;;;;;;;54.67;45.33;;;;;;;;5052303;28;46359;-84
2022/01/10 02:47:10;;;;;;;;;56.67;47.33;;;;;;;;5051004;28;46143;-86
2022/01/10 02:49:35;;;;;;;;;56.67;48.00;;;;;;;;5050921;28;45823;-85
2022/01/10 02:52:02;;;;;;;;;57.00;48.00;;;;;;;;5052323;28;45651;-84
2022/01/10 02:54:27;;;;;;;;;61.00;49.00;;;;;;;;5052299;28;45464;-81
2022/01/10 02:56:54;;;;;;;;;61.33;50.00;;;;;;;;5050286;28;45688;-85
2022/01/10 02:59:20;;;;;;;;;58.75;48.50;;;;;;;;5050900;28;45503;-83
2022/01/10 03:01:46;;;;;;;;;62.50;50.75;;;;;;;;5050861;28;45627;-79
2022/01/10 03:04:12;;;;;;;;;57.25;48.50;;;;;;;;5052404;28;48142;-79
2022/01/10 03:06:37;;;;;;;;;60.00;50.25;;;;;;;;5053244;28;45448;-79
2022/01/10 03:09:05;;;;;;;;;60.00;50.00;;;;;;;;5054341;28;45313;-81
2022/01/10 03:11:34;;;;;;;;;61.50;50.00;;;;;;;;5054252;28;45424;-80
2022/01/10 03:13:59;;;;;;;;;64.00;52.25;;;;;;;;5053117;28;45952;-88
2022/01/10 03:16:24;;;;;;;;;60.50;51.25;;;;;;;;5053221;28;45381;-86
2022/01/10 03:18:50;;;;;;;;;57.67;49.00;;;;;;;;5055474;28;45598;-85
2022/01/10 03:21:19;;;;;;;;;61.00;51.67;;;;;;;;5052547;28;45442;-81
2022/01/10 03:23:44;;;;;;;;;56.75;45.50;;;;;;;;5050604;28;47395;-84
2022/01/10 03:26:09;;;;;;;;;56.00;45.00;;;;;;;;5053408;28;45338;-85
2022/01/10 03:28:34;;;;;;;;;53.00;43.67;;;;;;;;5050177;28;45436;-79
2022/01/10 03:31:00;;;;;;;;;59.33;49.00;;;;;;;;5050639;28;45580;-79
2022/01/10 03:33:25;;;;;;;;;52.67;45.33;;;;;;;;5051091;28;48520;-86
2022/01/10 03:35:50;;;;;;;;;54.33;46.33;;;;;;;;5050838;28;45567;-79
2022/01/10 03:38:15;;;;;;;;;58.00;47.33;;;;;;;;5050684;28;45483;-82
2022/01/10 03:40:40;;;;;;;;;58.33;48.67;;;;;;;;5051413;28;45494;-82
2022/01/10 03:43:06;;;;;;;;;58.00;47.33;;;;;;;;5053975;28;45616;-87
2022/01/10 03:45:32;;;;;;;;;56.00;47.00;;;;;;;;5050301;28;45613;-82
2022/01/10 03:47:57;;;;;;;;;56.75;47.50;;;;;;;;5051989;28;45826;-84
2022/01/10 03:50:22;;;;;;;;;57.00;47.00;;;;;;;;5050938;28;45455;-80
2022/01/10 03:52:47;;;;;;;;;58.33;46.33;;;;;;;;5051416;28;45603;-82
2022/01/10 03:55:13;;;;;;;;;57.67;48.67;;;;;;;;5049716;28;45531;-82
2022/01/10 03:57:38;;;;;;;;;57.67;47.67;;;;;;;;5048729;28;45428;-80
2022/01/10 04:00:05;;;;;;;;;58.67;48.67;;;;;;;;5052022;28;45417;-83
2022/01/10 04:02:32;;;;;;;;;53.25;44.50;;;;;;;;5052129;28;48152;-85
2022/01/10 04:04:57;;;;;;;;;55.00;47.00;;;;;;;;5050254;28;45661;-80
2022/01/10 04:07:22;;;;;;;;;59.67;48.67;;;;;;;;5049354;28;45505;-82
2022/01/10 04:09:47;;;;;;;;;64.33;51.00;;;;;;;;5049674;28;45361;-82
2022/01/10 04:12:13;;;;;;;;;54.67;46.00;;;;;;;;5049525;28;46188;-79
2022/01/10 04:14:38;;;;;;;;;60.00;50.33;;;;;;;;5051656;28;45705;-79
2022/01/10 04:17:03;;;;;;;;;55.67;47.67;;;;;;;;5049447;28;45467;-78
2022/01/10 04:19:28;;;;;;;;;59.67;49.33;;;;;;;;5050560;28;45515;-81
2022/01/10 04:21:54;;;;;;;;;55.00;45.67;;;;;;;;5049697;28;47030;-87
2022/01/10 04:24:19;;;;;;;;;56.33;48.00;;;;;;;;5049950;28;45790;-82
2022/01/10 04:26:44;;;;;;;;;54.00;46.67;;;;;;;;5050851;28;45400;-80
2022/01/10 04:29:09;;;;;;;;;51.00;44.33;;;;;;;;5053025;28;45531;-84
2022/01/10 04:31:34;;;;;;;;;59.33;48.00;;;;;;;;5052658;28;47879;-82
2022/01/10 04:34:00;;;;;;;;;51.00;43.67;;;;;;;;5052078;28;45662;-80
2022/01/10 04:36:25;;;;;;;;;52.33;45.00;;;;;;;;5049506;28;45427;-78
2022/01/10 04:38:50;;;;;;;;;60.00;48.67;;;;;;;;5051129;28;45386;-81
2022/01/10 04:41:15;;;;;;;;;52.00;45.00;;;;;;;;5051130;28;46488;-82
2022/01/10 04:43:41;;;;;;;;;58.33;48.67;;;;;;;;5052517;28;45801;-86
2022/01/10 04:46:06;;;;;;;;;55.00;46.00;;;;;;;;5051589;28;45356;-87
2022/01/10 04:48:31;;;;;;;;;54.00;45.00;;;;;;;;5052266;28;45588;-84
2022/01/10 04:51:12;;;;;;;;;56.75;47.50;;;;;;;;5051517;28;46553;-81
2022/01/10 04:53:45;;;;;;;;;50.50;42.75;;;;;;;;5051657;28;45827;-80
2022/01/10 04:56:11;;;;;;;;;54.50;45.50;;;;;;;;5051230;28;45464;-81
2022/01/10 04:58:36;;;;;;;;;58.00;48.25;;;;;;;;5048939;28;45376;-79
2022/01/10 05:01:03;;;;;;;;;52.50;44.50;;;;;;;;5057317;28;46177;-84
2022/01/10 05:03:29;;;;;;;;;55.00;43.25;;;;;;;;5051000;28;45773;-82
2022/01/10 05:05:54;;;;;;;;;53.75;45.75;;;;;;;;5050034;28;45863;-86
2022/01/10 05:08:20;;;;;;;;;56.00;45.67;;;;;;;;5052202;28;45413;-79
2022/01/10 05:10:46;;;;;;;;;53.25;46.50;;;;;;;;5049116;28;48610;-80
2022/01/10 05:13:12;;;;;;;;;57.75;45.00;;;;;;;;5052410;28;45538;-83
2022/01/10 05:15:37;;;;;;;;;57.33;48.00;;;;;;;;5050818;28;45274;-85
2022/01/10 05:18:02;;;;;;;;;54.67;46.00;;;;;;;;5050357;28;45478;-87
2022/01/10 05:20:27;;;;;;;;;56.33;45.67;;;;;;;;5050767;28;46216;-85
2022/01/10 05:22:56;;;;;;;;;55.67;45.33;;;;;;;;5050115;28;45626;-85
2022/01/10 05:25:21;;;;;;;;;50.75;44.25;;;;;;;;5050133;28;45731;-85
2022/01/10 05:27:46;;;;;;;;;53.67;45.33;;;;;;;;5048922;28;45538;-80
2022/01/10 05:30:11;;;;;;;;;52.33;45.00;;;;;;;;5050309;28;46127;-86
2022/01/10 05:32:37;;;;;;;;;52.67;44.33;;;;;;;;5048378;28;45296;-85
2022/01/10 05:35:02;;;;;;;;;55.33;46.00;;;;;;;;5052664;28;45326;-83
2022/01/10 05:37:28;;;;;;;;;52.75;43.25;;;;;;;;5049570;28;45502;-80
2022/01/10 05:39:53;;;;;;;;;53.00;45.33;;;;;;;;5050438;28;45327;-80
2022/01/10 05:42:19;;;;;;;;;54.00;44.00;;;;;;;;5052088;28;45294;-79
2022/01/10 05:44:44;;;;;;;;;48.25;43.00;;;;;;;;5050068;28;45489;-83
2022/01/10 05:47:10;;;;;;;;;54.50;44.75;;;;;;;;5050108;28;45483;-79
2022/01/10 05:49:37;;;;;;;;;51.67;44.67;;;;;;;;5052488;28;45442;-80
2022/01/10 05:52:02;;;;;;;;;52.75;43.75;;;;;;;;5049249;28;46067;-81
2022/01/10 05:54:28;;;;;;;;;50.00;44.50;;;;;;;;5049038;28;45561;-79
2022/01/10 05:56:53;;;;;;;;;50.75;41.25;;;;;;;;5047986;28;45495;-82
2022/01/10 05:59:19;;;;;;;;;52.00;44.67;;;;;;;;5049157;28;47957;-80
2022/01/10 06:01:44;;;;;;;;;51.25;44.00;;;;;;;;5049476;28;45618;-84
2022/01/10 06:04:09;;;;;;;;;50.00;43.67;;;;;;;;5049949;28;45440;-86
2022/01/10 06:06:34;;;;;;;;;48.67;43.67;;;;;;;;5047344;28;45598;-85
2022/01/10 06:08:59;;;;;;;;;48.00;42.67;;;;;;;;5049706;28;46160;-82
2022/01/10 06:11:25;;;;;;;;;48.00;42.67;;;;;;;;5049347;28;45410;-85
2022/01/10 06:13:50;;;;;;;;;54.00;45.00;;;;;;;;5048039;28;45340;-78
2022/01/10 06:16:16;;;;;;;;;53.00;44.33;;;;;;;;5050589;28;45432;-82
2022/01/10 06:18:41;;;;;;;;;53.50;44.75;;;;;;;;5050958;28;47301;-82
2022/01/10 06:21:06;;;;;;;;;50.67;43.00;;;;;;;;5052434;28;45385;-85
2022/01/10 06:23:32;;;;;;;;;67.67;55.33;;;;;;;;5057864;28;45153;-80
2022/01/10 06:25:57;;;;;;;;;60.00;49.67;;;;;;;;5069238;28;45164;-86
2022/01/10 06:28:22;;;;;;;;;55.00;47.00;;;;;;;;5068365;28;46357;-85
2022/01/10 06:30:47;;;;;;;;;51.00;41.00;;;;;;;;5063293;28;45086;-81
2022/01/10 06:33:12;;;;;;;;;40.67;36.67;;;;;;;;5062396;28;45342;-82
2022/01/10 06:35:38;;;;;;;;;51.33;42.33;;;;;;;;5060460;28;45250;-86
2022/01/10 06:38:03;;;;;;;;;46.00;41.00;;;;;;;;5070993;28;47253;-79
2022/01/10 06:40:28;;;;;;;;;51.00;42.33;;;;;;;;5070919;28;45218;-81
2022/01/10 06:42:53;;;;;;;;;39.33;37.67;;;;;;;;5070755;28;45179;-79
2022/01/10 06:45:19;;;;;;;;;43.67;37.00;;;;;;;;5069561;28;45320;-83
2022/01/10 06:47:44;;;;;;;;;42.75;37.75;;;;;;;;5070816;28;46207;-81
2022/01/10 06:50:09;;;;;;;;;42.67;35.00;;;;;;;;5070952;28;45189;-79
2022/01/10 06:52:35;;;;;;;;;43.33;35.00;;;;;;;;5070484;28;45099;-79
2022/01/10 06:55:00;;;;;;;;;34.75;31.25;;;;;;;;5070587;28;45088;-83
2022/01/10 06:57:26;;;;;;;;;38.25;35.75;;;;;;;;5071279;28;45397;-78
2022/01/10 06:59:51;;;;;;;;;33.00;32.00;;;;;;;;5070990;28;45106;-78
2022/01/10 07:02:16;;;;;;;;;42.50;32.00;;;;;;;;5071301;28;45041;-81
2022/01/10 07:04:42;;;;;;;;;38.67;35.00;;;;;;;;5057231;28;45417;-87
2022/01/10 07:07:07;;;;;;;;;38.75;31.25;;;;;;;;5059741;28;47059;-80
2022/01/10 07:09:33;;;;;;;;;40.50;34.50;;;;;;;;5063631;28;45190;-86
2022/01/10 07:11:58;;;;;;;;;34.75;31.75;;;;;;;;5062163;28;45234;-79
2022/01/10 07:14:24;;;;;;;;;41.00;37.00;;;;;;;;5072583;28;45225;-88
2022/01/10 07:16:50;;;;;;;;;39.00;30.50;;;;;;;;5071821;28;45916;-84
2022/01/10 07:19:15;;;;;;;;;38.00;33.75;;;;;;;;5073348;28;45491;-86
2022/01/10 07:21:41;;;;;;;;;36.75;34.75;;;;;;;;5072732;28;45049;-88
2022/01/10 07:24:07;;;;;;;;;38.25;33.75;;;;;;;;5072383;28;45330;-82
2022/01/10 07:26:32;;;;;;;;;33.00;29.00;;;;;;;;5071720;28;45405;-85
2022/01/10 07:28:58;;;;;;;;;36.25;32.50;;;;;;;;5055734;28;45649;-87
2022/01/10 07:31:23;;;;;;;;;38.75;30.25;;;;;;;;5054555;28;45677;-79
2022/01/10 07:33:52;;;;;;;;;28.00;24.50;;;;;;;;5056177;28;45629;-79
2022/01/10 07:36:17;;;;;;;;;37.00;34.50;;;;;;;;5049892;28;46262;-78
2022/01/10 07:38:43;;;;;;;;;33.25;32.00;;;;;;;;5041286;28;45522;-81
2022/01/10 07:41:08;;;;;;;;;34.00;29.00;;;;;;;;5047809;28;45649;-84
2022/01/10 07:43:39;;;;;;;;;36.00;33.67;;;;;;;;5041021;28;45636;-85
2022/01/10 07:46:05;;;;;;;;;25.75;25.00;;;;;;;;5053443;28;45530;-80
2022/01/10 07:48:35;;;;;;;;;30.00;24.00;;;;;;;;5046045;28;45864;-83
2022/01/10 07:51:01;;;;;;;;;19.75;18.25;;;;;;;;5043924;28;45522;-79
2022/01/10 07:53:31;;;;;;;;;21.50;21.25;;;;;;;;5052249;28;45437;-91
2022/01/10 07:55:57;;;;;;;;;28.00;25.25;;;;;;;;5051126;28;47141;-89
2022/01/10 07:58:22;;;;;;;;;29.00;25.00;;;;;;;;5052215;28;45513;-86
2022/01/10 08:00:47;;;;;;;;;29.00;24.00;;;;;;;;5052041;28;45623;-78
2022/01/10 08:03:12;;;;;;;;;25.00;21.67;;;;;;;;5043289;28;45401;-81
2022/01/10 08:05:37;;;;;;;;;26.67;24.33;;;;;;;;5033456;28;46319;-78
2022/01/10 08:08:03;;;;;;;;;29.67;27.00;;;;;;;;5045368;28;45428;-85
2022/01/10 08:10:28;;;;;;;;;20.00;17.25;;;;;;;;5047857;28;45893;-78
2022/01/10 08:12:53;;;;;;;;;22.67;22.00;;;;;;;;5049729;28;45937;-79
2022/01/10 08:15:20;;;;;;;;;24.50;21.25;;;;;;;;5051537;28;46557;-90
2022/01/10 08:17:46;;;;;;;;;25.75;24.75;;;;;;;;5063146;28;45423;-79
2022/01/10 08:20:12;;;;;;;;;24.75;22.25;;;;;;;;5056900;27;45304;-81
2022/01/10 08:22:37;;;;;;;;;22.00;21.75;;;;;;;;5057816;28;45321;-81
2022/01/10 08:25:03;;;;;;;;;26.00;24.33;;;;;;;;5053853;28;46665;-90
2022/01/10 08:27:28;;;;;;;;;27.75;25.50;;;;;;;;5051887;28;45414;-79
2022/01/10 08:29:53;;;;;;;;;26.67;24.67;;;;;;;;5054102;28;45697;-77
2022/01/10 08:32:19;;;;;;;;;26.50;23.25;;;;;;;;5053271;28;45744;-77
2022/01/10 08:34:44;;;;;;;;;28.33;26.33;;;;;;;;5057710;28;45790;-87
2022/01/10 08:37:10;;;;;;;;;27.67;22.67;;;;;;;;5049093;28;45413;-89
2022/01/10 08:39:39;;;;;;;;;21.00;20.50;;;;;;;;5051530;28;45469;-79
2022/01/10 08:42:04;;;;;;;;;28.25;27.25;;;;;;;;5055277;28;45563;-77
2022/01/10 08:44:30;;;;;;;;;21.00;18.75;;;;;;;;5053460;28;46532;-81
2022/01/10 08:46:55;;;;;;;;;26.00;23.75;;;;;;;;5049550;28;46575;-82
2022/01/10 08:49:23;;;;;;;;;27.75;23.50;;;;;;;;5047186;28;45463;-79
2022/01/10 08:51:54;;;;;;;;;26.75;22.75;;;;;;;;5064620;28;45056;-79
2022/01/10 08:54:20;;;;;;;;;29.50;28.00;;;;;;;;5067155;28;45978;-79
2022/01/10 08:56:45;;;;;;;;;25.75;24.25;;;;;;;;5062799;28;45596;-80
2022/01/10 08:59:10;;;;;;;;;28.00;21.67;;;;;;;;5065115;28;45166;-81
2022/01/10 09:01:35;;;;;;;;;29.00;25.00;;;;;;;;5061884;28;45286;-78
2022/01/10 09:04:01;;;;;;;;;22.00;21.00;;;;;;;;5068754;28;46173;-83
2022/01/10 09:06:26;;;;;;;;;20.00;18.00;;;;;;;;5065557;28;45177;-81
2022/01/10 09:08:51;;;;;;;;;19.75;19.00;;;;;;;;5066679;28;45176;-79
2022/01/10 09:11:17;;;;;;;;;24.33;21.33;;;;;;;;5048407;28;45449;-77
2022/01/10 09:13:45;;;;;;;;;23.50;20.75;;;;;;;;5044153;28;45578;-91
2022/01/10 09:16:13;;;;;;;;;20.25;18.75;;;;;;;;5043509;28;45838;-86
2022/01/10 09:18:39;;;;;;;;;23.00;18.75;;;;;;;;5047755;28;45482;-80
2022/01/10 09:21:04;;;;;;;;;21.00;19.75;;;;;;;;5047574;28;45526;-80
2022/01/10 09:23:29;;;;;;;;;20.67;18.67;;;;;;;;5048022;28;47003;-87
2022/01/10 09:25:54;;;;;;;;;19.33;18.67;;;;;;;;5046262;28;45574;-81
2022/01/10 09:28:20;;;;;;;;;19.33;16.67;;;;;;;;5049857;28;45717;-80
2022/01/10 09:30:46;;;;;;;;;25.00;20.25;;;;;;;;5051172;28;45398;-80
2022/01/10 09:33:11;;;;;;;;;26.75;24.25;;;;;;;;5046363;28;46332;-88
2022/01/10 09:35:36;;;;;;;;;22.00;19.67;;;;;;;;5039522;28;45463;-80
2022/01/10 09:38:02;;;;;;;;;25.00;23.33;;;;;;;;5045378;28;45790;-86
2022/01/10 09:40:28;;;;;;;;;17.00;16.00;;;;;;;;5052207;28;45480;-79
2022/01/10 09:42:53;;;;;;;;;21.00;18.00;;;;;;;;5050215;28;46273;-79
2022/01/10 09:45:18;;;;;;;;;25.00;23.33;;;;;;;;5048109;28;46083;-82
2022/01/10 09:47:43;;;;;;;;;25.00;22.33;;;;;;;;5052817;28;45428;-81
2022/01/10 09:50:10;;;;;;;;;26.00;23.75;;;;;;;;5045551;28;45565;-80
2022/01/10 09:52:37;;;;;;;;;19.50;18.00;;;;;;;;5045264;28;45535;-86
2022/01/10 09:55:02;;;;;;;;;18.75;16.25;;;;;;;;5049620;28;45831;-87
2022/01/10 09:57:27;;;;;;;;;17.25;17.25;;;;;;;;5053760;28;45533;-81
2022/01/10 09:59:52;;;;;;;;;20.33;18.33;;;;;;;;5038420;28;45633;-81
2022/01/10 10:02:18;;;;;;;;;18.00;16.33;;;;;;;;5041460;28;45611;-82
2022/01/10 10:04:43;;;;;;;;;20.75;19.50;;;;;;;;5045947;28;45525;-86
2022/01/10 10:07:09;;;;;;;;;20.00;18.50;;;;;;;;5046057;28;45828;-81
2022/01/10 10:09:34;;;;;;;;;21.75;19.75;;;;;;;;5049897;28;45698;-83
2022/01/10 10:12:00;;;;;;;;;21.50;20.50;;;;;;;;5049095;28;47930;-83
2022/01/10 10:14:26;;;;;;;;;25.50;22.50;;;;;;;;5051886;28;45781;-81
2022/01/10 10:16:53;;;;;;;;;21.50;19.00;;;;;;;;5049872;28;45698;-79
2022/01/10 10:19:20;;;;;;;;;21.75;17.25;;;;;;;;5039861;28;45654;-79
2022/01/10 10:21:49;;;;;;;;;21.75;17.00;;;;;;;;5045136;28;46208;-79
2022/01/10 10:24:14;;;;;;;;;17.25;16.00;;;;;;;;5051475;28;45837;-80
2022/01/10 10:26:40;;;;;;;;;20.25;17.75;;;;;;;;5050920;28;45416;-84
2022/01/10 10:29:05;;;;;;;;;25.00;22.75;;;;;;;;5047919;28;45432;-79
2022/01/10 10:31:32;;;;;;;;;20.50;19.50;;;;;;;;5035987;28;46323;-80
2022/01/10 10:33:58;;;;;;;;;25.00;21.50;;;;;;;;5046089;28;45873;-80
2022/01/10 10:36:25;;;;;;;;;25.50;23.00;;;;;;;;5049040;28;45864;-86
2022/01/10 10:38:50;;;;;;;;;20.50;19.75;;;;;;;;5045478;28;45571;-86
2022/01/10 10:41:16;;;;;;;;;21.50;19.50;;;;;;;;5041345;28;46784;-82
2022/01/10 10:43:42;;;;;;;;;27.00;25.67;;;;;;;;5037455;28;45464;-85
2022/01/10 10:46:12;;;;;;;;;21.75;20.50;;;;;;;;5047090;28;45826;-81
2022/01/10 10:48:38;;;;;;;;;30.25;26.00;;;;;;;;5047181;28;45494;-84
2022/01/10 10:51:03;;;;;;;;;22.00;19.00;;;;;;;;5047669;28;45660;-79
2022/01/10 10:53:29;;;;;;;;;26.33;21.67;;;;;;;;5048146;28;45812;-85
2022/01/10 10:55:56;;;;;;;;;23.00;21.75;;;;;;;;5047520;28;45724;-80
2022/01/10 10:58:22;;;;;;;;;24.75;22.00;;;;;;;;5047282;28;45776;-81
2022/01/10 11:00:47;;;;;;;;;25.33;22.00;;;;;;;;5049258;28;46498;-87
2022/01/10 11:03:15;;;;;;;;;22.33;20.67;;;;;;;;5056751;28;45537;-86
2022/01/10 11:05:42;;;;;;;;;20.00;18.25;;;;;;;;5066642;28;45168;-81
2022/01/10 11:08:07;;;;;;;;;21.75;20.00;;;;;;;;5070182;28;45363;-81
2022/01/10 11:10:33;;;;;;;;;22.50;21.00;;;;;;;;5060186;28;45408;-88
2022/01/10 11:13:00;;;;;;;;;24.50;23.25;;;;;;;;5061113;28;46076;-83
2022/01/10 11:15:26;;;;;;;;;17.25;17.25;;;;;;;;5061414;28;45424;-82
2022/01/10 11:17:59;;;;;;;;;23.50;21.00;;;;;;;;5066838;28;45101;-85
2022/01/10 11:20:25;;;;;;;;;24.50;23.00;;;;;;;;5065314;28;47241;-85
2022/01/10 11:22:51;;;;;;;;;24.25;23.00;;;;;;;;5061861;28;45622;-81
2022/01/10 11:25:20;;;;;;;;;23.25;23.25;;;;;;;;5062271;28;45257;-82
2022/01/10 11:27:45;;;;;;;;;23.75;21.50;;;;;;;;5045449;28;45155;-86
2022/01/10 11:30:30;;;;;;;;;27.75;22.75;;;;;;;;5060097;28;47368;-81
2022/01/10 11:33:05;;;;;;;;;25.25;21.75;;;;;;;;5065985;28;45205;-83
2022/01/10 11:35:38;;;;;;;;;28.00;24.25;;;;;;;;5061377;28;45207;-80
2022/01/10 11:38:16;;;;;;;;;22.25;19.50;;;;;;;;5061937;28;44975;-86
2022/01/10 11:40:42;;;;;;;;;24.75;22.25;;;;;;;;5061946;28;45556;-82
2022/01/10 11:43:07;;;;;;;;;26.50;19.25;;;;;;;;5064452;28;45419;-86
2022/01/10 11:45:40;;;;;;;;;26.67;24.00;;;;;;;;5068242;28;45074;-86
2022/01/10 11:48:10;;;;;;;;;19.00;18.25;;;;;;;;5061055;28;45549;-85
2022/01/10 11:50:40;;;;;;;;;20.50;17.00;;;;;;;;5051301;28;46114;-84
2022/01/10 11:53:05;;;;;;;;;21.00;19.00;;;;;;;;5055424;28;45366;-80
2022/01/10 11:55:31;;;;;;;;;24.75;22.00;;;;;;;;5046934;28;45954;-80
2022/01/10 11:58:05;;;;;;;;;21.75;21.50;;;;;;;;5051510;28;45543;-86
2022/01/10 12:00:36;;;;;;;;;24.75;22.00;;;;;;;;5050709;28;46200;-85
2022/01/10 12:03:02;;;;;;;;;21.50;20.25;;;;;;;;5051901;28;45989;-79
2022/01/10 12:05:27;;;;;;;;;19.50;17.00;;;;;;;;5054609;28;45640;-80
2022/01/10 12:07:52;;;;;;;;;27.75;23.75;;;;;;;;5050804;28;45535;-87
2022/01/10 12:10:18;;;;;;;;;27.00;25.67;;;;;;;;5055344;28;45790;-87
2022/01/10 12:12:44;;;;;;;;;26.25;24.50;;;;;;;;5063184;28;45442;-86
2022/01/10 12:15:09;;;;;;;;;26.50;23.75;;;;;;;;5069005;28;45201;-84
2022/01/10 12:17:36;;;;;;;;;26.33;25.33;;;;;;;;5062306;28;45409;-87
2022/01/10 12:20:03;;;;;;;;;28.25;26.50;;;;;;;;5059999;28;45484;-84
2022/01/10 12:22:28;;;;;;;;;40.50;30.00;;;;;;;;5057925;28;45539;-87
2022/01/10 12:24:53;;;;;;;;;31.00;28.33;;;;;;;;5066284;28;45189;-85
2022/01/10 12:27:18;;;;;;;;;31.67;30.33;;;;;;;;5068713;28;44944;-87
2022/01/10 12:29:44;;;;;;;;;36.33;29.33;;;;;;;;5064992;28;45605;-81
2022/01/10 12:32:11;;;;;;;;;29.50;28.50;;;;;;;;5039970;28;45436;-85
2022/01/10 12:34:38;;;;;;;;;36.50;32.75;;;;;;;;5044019;28;45728;-85
2022/01/10 12:37:04;;;;;;;;;35.00;32.00;;;;;;;;5043646;28;45539;-81
2022/01/10 12:39:30;;;;;;;;;28.75;24.00;;;;;;;;5048722;28;46494;-83
2022/01/10 12:41:56;;;;;;;;;36.50;30.75;;;;;;;;5051032;28;46002;-83
2022/01/10 12:44:23;;;;;;;;;25.50;24.75;;;;;;;;5044102;28;45674;-84
2022/01/10 12:46:48;;;;;;;;;34.50;31.75;;;;;;;;5054108;28;45732;-85
2022/01/10 12:49:14;;;;;;;;;29.75;27.75;;;;;;;;5053422;28;46340;-86
2022/01/10 12:51:42;;;;;;;;;31.75;29.25;;;;;;;;5053042;28;45452;-81
2022/01/10 12:54:27;;;;;;;;;34.75;28.25;;;;;;;;5050639;28;45475;-86
2022/01/10 12:56:52;;;;;;;;;35.75;32.00;;;;;;;;5041157;28;46079;-84
2022/01/10 12:59:19;;;;;;;;;27.50;26.50;;;;;;;;5033931;28;46311;-81
2022/01/10 13:01:48;;;;;;;;;35.25;32.25;;;;;;;;5042407;28;45611;-85
2022/01/10 13:04:14;;;;;;;;;34.25;32.00;;;;;;;;5053446;28;45855;-81
2022/01/10 13:06:41;;;;;;;;;33.50;30.00;;;;;;;;5055109;28;45422;-84
2022/01/10 13:09:08;;;;;;;;;32.00;28.50;;;;;;;;5057805;28;47757;-82
2022/01/10 13:11:43;;;;;;;;;34.00;26.25;;;;;;;;5049195;28;46320;-85
2022/01/10 13:14:16;;;;;;;;;31.25;25.75;;;;;;;;5054565;28;45864;-79
2022/01/10 13:16:42;;;;;;;;;33.00;30.75;;;;;;;;5046841;28;45511;-84
2022/01/10 13:19:09;;;;;;;;;31.50;28.00;;;;;;;;5058267;28;46310;-83
2022/01/10 13:21:40;;;;;;;;;31.50;27.75;;;;;;;;5059388;28;45559;-83
2022/01/10 13:24:10;;;;;;;;;32.50;29.75;;;;;;;;5052962;28;45424;-79
2022/01/10 13:26:35;;;;;;;;;35.50;31.75;;;;;;;;5044081;28;45389;-81
2022/01/10 13:29:04;;;;;;;;;27.50;26.50;;;;;;;;5054889;28;45492;-84
2022/01/10 13:31:36;;;;;;;;;34.50;33.75;;;;;;;;5044130;28;45529;-86
2022/01/10 13:34:01;;;;;;;;;27.00;26.00;;;;;;;;5046974;28;45730;-84
2022/01/10 13:36:26;;;;;;;;;28.67;26.33;;;;;;;;5050262;28;45655;-82
2022/01/10 13:38:51;;;;;;;;;34.67;31.00;;;;;;;;5049318;28;47164;-81
2022/01/10 13:41:16;;;;;;;;;34.33;33.33;;;;;;;;5051037;28;45652;-80
2022/01/10 13:43:42;;;;;;;;;38.00;33.33;;;;;;;;5049494;28;45431;-86
2022/01/10 13:46:16;;;;;;;;;39.33;34.33;;;;;;;;5051753;28;45676;-82
2022/01/10 13:48:48;;;;;;;;;35.50;30.25;;;;;;;;5056272;28;46525;-88
2022/01/10 13:51:15;;;;;;;;;38.75;34.00;;;;;;;;5053797;28;45527;-87
2022/01/10 13:53:43;;;;;;;;;35.75;31.75;;;;;;;;5052269;28;45430;-88
2022/01/10 13:56:18;;;;;;;;;35.75;33.25;;;;;;;;5052959;28;45938;-83
2022/01/10 13:58:46;;;;;;;;;29.50;26.00;;;;;;;;5065064;28;45424;-86
2022/01/10 14:01:18;;;;;;;;;29.75;28.00;;;;;;;;5061988;28;45163;-80
2022/01/10 14:03:45;;;;;;;;;34.00;30.75;;;;;;;;5067749;28;45256;-83
2022/01/10 14:06:14;;;;;;;;;31.75;29.25;;;;;;;;5065610;28;45215;-85
2022/01/10 14:08:41;;;;;;;;;33.75;30.25;;;;;;;;5061468;28;45894;-81
2022/01/10 14:11:06;;;;;;;;;31.75;26.50;;;;;;;;5056921;28;45560;-85
2022/01/10 14:13:32;;;;;;;;;39.75;29.25;;;;;;;;5067728;28;45272;-87
2022/01/10 14:15:58;;;;;;;;;34.50;29.25;;;;;;;;5069310;28;45310;-89
2022/01/10 14:18:23;;;;;;;;;33.25;29.75;;;;;;;;5069988;28;46316;-86
2022/01/10 14:20:48;;;;;;;;;28.25;26.25;;;;;;;;5069319;28;45114;-84
2022/01/10 14:23:14;;;;;;;;;38.00;29.33;;;;;;;;5065286;28;45157;-79